sensor_id;sensor_type;location;lat;lon;timestamp;P1;durP1;ratioP1;P2;durP2;ratioP2
23782;SDS011;12071;50.850;4.446;2024-01-06T00:00:34;8.90;;;4.93;;
23782;SDS011;12071;50.850;4.446;2024-01-06T00:03:00;11.68;;;5.30;;
23782;SDS011;12071;50.850;4.446;2024-01-06T00:05:26;10.00;;;4.65;;
23782;SDS011;12071;50.850;4.446;2024-01-06T00:07:52;10.43;;;5.10;;
23782;SDS011;12071;50.850;4.446;2024-01-06T00:10:17;10.48;;;4.97;;
23782;SDS011;12071;50.850;4.446;2024-01-06T00:12:43;10.98;;;5.82;;
23782;SDS011;12071;50.850;4.446;2024-01-06T00:15:10;9.25;;;5.25;;
23782;SDS011;12071;50.850;4.446;2024-01-06T00:17:38;8.55;;;5.28;;
23782;SDS011;12071;50.850;4.446;2024-01-06T00:20:04;7.63;;;5.10;;
23782;SDS011;12071;50.850;4.446;2024-01-06T00:22:30;10.90;;;5.78;;
23782;SDS011;12071;50.850;4.446;2024-01-06T00:24:56;11.52;;;5.82;;
23782;SDS011;12071;50.850;4.446;2024-01-06T00:27:22;11.52;;;6.13;;
23782;SDS011;12071;50.850;4.446;2024-01-06T00:29:47;11.73;;;5.72;;
23782;SDS011;12071;50.850;4.446;2024-01-06T00:32:13;8.77;;;4.95;;
23782;SDS011;12071;50.850;4.446;2024-01-06T00:34:39;10.88;;;6.25;;
23782;SDS011;12071;50.850;4.446;2024-01-06T00:37:04;11.15;;;5.72;;
23782;SDS011;12071;50.850;4.446;2024-01-06T00:39:31;9.00;;;5.53;;
23782;SDS011;12071;50.850;4.446;2024-01-06T00:41:57;10.32;;;6.20;;
23782;SDS011;12071;50.850;4.446;2024-01-06T00:44:23;11.45;;;5.72;;
23782;SDS011;12071;50.850;4.446;2024-01-06T00:46:48;7.50;;;5.28;;
23782;SDS011;12071;50.850;4.446;2024-01-06T00:49:14;9.68;;;6.20;;
23782;SDS011;12071;50.850;4.446;2024-01-06T00:51:40;11.23;;;5.60;;
23782;SDS011;12071;50.850;4.446;2024-01-06T00:54:05;10.23;;;4.97;;
23782;SDS011;12071;50.850;4.446;2024-01-06T00:56:31;6.97;;;4.70;;
23782;SDS011;12071;50.850;4.446;2024-01-06T00:58:57;7.03;;;4.70;;
23782;SDS011;12071;50.850;4.446;2024-01-06T01:01:22;8.02;;;4.80;;
23782;SDS011;12071;50.850;4.446;2024-01-06T01:03:48;10.45;;;4.75;;
23782;SDS011;12071;50.850;4.446;2024-01-06T01:06:15;7.40;;;4.50;;
23782;SDS011;12071;50.850;4.446;2024-01-06T01:08:40;8.07;;;4.03;;
23782;SDS011;12071;50.850;4.446;2024-01-06T01:11:06;6.50;;;4.32;;
23782;SDS011;12071;50.850;4.446;2024-01-06T01:13:32;5.00;;;3.95;;
23782;SDS011;12071;50.850;4.446;2024-01-06T01:15:57;6.32;;;3.60;;
23782;SDS011;12071;50.850;4.446;2024-01-06T01:18:23;5.10;;;3.90;;
23782;SDS011;12071;50.850;4.446;2024-01-06T01:20:49;6.85;;;4.13;;
23782;SDS011;12071;50.850;4.446;2024-01-06T01:23:14;6.63;;;4.07;;
23782;SDS011;12071;50.850;4.446;2024-01-06T01:25:40;7.57;;;4.45;;
23782;SDS011;12071;50.850;4.446;2024-01-06T01:28:06;9.75;;;4.30;;
23782;SDS011;12071;50.850;4.446;2024-01-06T01:30:31;5.18;;;3.80;;
23782;SDS011;12071;50.850;4.446;2024-01-06T01:32:57;6.45;;;4.03;;
23782;SDS011;12071;50.850;4.446;2024-01-06T01:35:23;7.18;;;3.70;;
23782;SDS011;12071;50.850;4.446;2024-01-06T01:37:49;7.90;;;4.03;;
23782;SDS011;12071;50.850;4.446;2024-01-06T01:40:15;8.85;;;4.05;;
23782;SDS011;12071;50.850;4.446;2024-01-06T01:42:42;7.72;;;4.22;;
23782;SDS011;12071;50.850;4.446;2024-01-06T01:45:08;5.65;;;3.65;;
23782;SDS011;12071;50.850;4.446;2024-01-06T01:47:34;9.02;;;4.32;;
23782;SDS011;12071;50.850;4.446;2024-01-06T01:50:01;10.70;;;4.55;;
23782;SDS011;12071;50.850;4.446;2024-01-06T01:52:28;7.97;;;4.03;;
23782;SDS011;12071;50.850;4.446;2024-01-06T01:54:53;7.03;;;4.38;;
23782;SDS011;12071;50.850;4.446;2024-01-06T01:57:19;7.60;;;3.92;;
23782;SDS011;12071;50.850;4.446;2024-01-06T01:59:48;5.82;;;3.50;;
23782;SDS011;12071;50.850;4.446;2024-01-06T02:02:14;10.35;;;4.25;;
23782;SDS011;12071;50.850;4.446;2024-01-06T02:04:40;4.95;;;3.53;;
23782;SDS011;12071;50.850;4.446;2024-01-06T02:07:06;8.85;;;3.75;;
23782;SDS011;12071;50.850;4.446;2024-01-06T02:09:32;7.68;;;3.83;;
23782;SDS011;12071;50.850;4.446;2024-01-06T02:11:58;5.85;;;3.55;;
23782;SDS011;12071;50.850;4.446;2024-01-06T02:14:23;6.10;;;3.30;;
23782;SDS011;12071;50.850;4.446;2024-01-06T02:16:49;6.75;;;3.58;;
23782;SDS011;12071;50.850;4.446;2024-01-06T02:19:15;5.68;;;3.83;;
23782;SDS011;12071;50.850;4.446;2024-01-06T02:21:43;5.43;;;3.20;;
23782;SDS011;12071;50.850;4.446;2024-01-06T02:24:09;6.05;;;3.33;;
23782;SDS011;12071;50.850;4.446;2024-01-06T02:26:35;4.13;;;3.03;;
23782;SDS011;12071;50.850;4.446;2024-01-06T02:29:01;5.05;;;3.10;;
23782;SDS011;12071;50.850;4.446;2024-01-06T02:31:29;3.75;;;2.65;;
23782;SDS011;12071;50.850;4.446;2024-01-06T02:33:55;3.72;;;2.70;;
23782;SDS011;12071;50.850;4.446;2024-01-06T02:36:21;7.93;;;2.83;;
23782;SDS011;12071;50.850;4.446;2024-01-06T02:38:46;3.28;;;2.60;;
23782;SDS011;12071;50.850;4.446;2024-01-06T02:41:12;3.85;;;2.45;;
23782;SDS011;12071;50.850;4.446;2024-01-06T02:43:38;4.15;;;2.40;;
23782;SDS011;12071;50.850;4.446;2024-01-06T02:46:03;4.22;;;2.58;;
23782;SDS011;12071;50.850;4.446;2024-01-06T02:48:29;3.08;;;2.25;;
23782;SDS011;12071;50.850;4.446;2024-01-06T02:50:55;4.35;;;2.53;;
23782;SDS011;12071;50.850;4.446;2024-01-06T02:53:21;3.95;;;2.50;;
23782;SDS011;12071;50.850;4.446;2024-01-06T02:55:47;3.40;;;2.97;;
23782;SDS011;12071;50.850;4.446;2024-01-06T02:58:13;4.90;;;2.67;;
23782;SDS011;12071;50.850;4.446;2024-01-06T03:00:39;3.30;;;2.70;;
23782;SDS011;12071;50.850;4.446;2024-01-06T03:03:04;3.75;;;3.05;;
23782;SDS011;12071;50.850;4.446;2024-01-06T03:05:30;3.42;;;3.13;;
23782;SDS011;12071;50.850;4.446;2024-01-06T03:07:56;4.60;;;3.55;;
23782;SDS011;12071;50.850;4.446;2024-01-06T03:10:22;6.32;;;4.30;;
23782;SDS011;12071;50.850;4.446;2024-01-06T03:12:48;7.85;;;4.78;;
23782;SDS011;12071;50.850;4.446;2024-01-06T03:15:13;7.90;;;4.63;;
23782;SDS011;12071;50.850;4.446;2024-01-06T03:17:39;7.03;;;5.50;;
23782;SDS011;12071;50.850;4.446;2024-01-06T03:20:05;7.88;;;5.75;;
23782;SDS011;12071;50.850;4.446;2024-01-06T03:22:32;9.10;;;6.05;;
23782;SDS011;12071;50.850;4.446;2024-01-06T03:24:58;10.02;;;6.10;;
23782;SDS011;12071;50.850;4.446;2024-01-06T03:27:23;7.70;;;5.85;;
23782;SDS011;12071;50.850;4.446;2024-01-06T03:29:49;8.25;;;6.05;;
23782;SDS011;12071;50.850;4.446;2024-01-06T03:32:15;7.45;;;6.18;;
23782;SDS011;12071;50.850;4.446;2024-01-06T03:34:41;10.43;;;6.35;;
23782;SDS011;12071;50.850;4.446;2024-01-06T03:37:07;7.97;;;6.22;;
23782;SDS011;12071;50.850;4.446;2024-01-06T03:39:32;8.27;;;6.57;;
23782;SDS011;12071;50.850;4.446;2024-01-06T03:41:59;10.55;;;7.43;;
23782;SDS011;12071;50.850;4.446;2024-01-06T03:44:25;10.18;;;7.88;;
23782;SDS011;12071;50.850;4.446;2024-01-06T03:46:56;11.65;;;8.70;;
23782;SDS011;12071;50.850;4.446;2024-01-06T03:49:22;12.07;;;8.80;;
23782;SDS011;12071;50.850;4.446;2024-01-06T03:51:49;14.07;;;8.57;;
23782;SDS011;12071;50.850;4.446;2024-01-06T03:54:14;13.30;;;9.27;;
23782;SDS011;12071;50.850;4.446;2024-01-06T03:56:40;16.33;;;10.38;;
23782;SDS011;12071;50.850;4.446;2024-01-06T03:59:06;15.82;;;10.25;;
23782;SDS011;12071;50.850;4.446;2024-01-06T04:01:32;14.55;;;9.05;;
23782;SDS011;12071;50.850;4.446;2024-01-06T04:04:01;16.83;;;10.77;;
23782;SDS011;12071;50.850;4.446;2024-01-06T04:06:29;17.08;;;9.88;;
23782;SDS011;12071;50.850;4.446;2024-01-06T04:08:57;17.55;;;10.48;;
23782;SDS011;12071;50.850;4.446;2024-01-06T04:11:23;15.90;;;10.82;;
23782;SDS011;12071;50.850;4.446;2024-01-06T04:13:48;18.92;;;10.95;;
23782;SDS011;12071;50.850;4.446;2024-01-06T04:16:14;21.40;;;12.05;;
23782;SDS011;12071;50.850;4.446;2024-01-06T04:18:40;17.75;;;11.80;;
23782;SDS011;12071;50.850;4.446;2024-01-06T04:21:06;18.30;;;11.10;;
23782;SDS011;12071;50.850;4.446;2024-01-06T04:23:31;21.50;;;11.95;;
23782;SDS011;12071;50.850;4.446;2024-01-06T04:25:58;19.20;;;12.00;;
23782;SDS011;12071;50.850;4.446;2024-01-06T04:28:23;20.58;;;11.55;;
23782;SDS011;12071;50.850;4.446;2024-01-06T04:30:50;25.40;;;12.52;;
23782;SDS011;12071;50.850;4.446;2024-01-06T04:33:16;22.63;;;13.00;;
23782;SDS011;12071;50.850;4.446;2024-01-06T04:35:41;22.63;;;12.40;;
23782;SDS011;12071;50.850;4.446;2024-01-06T04:38:07;24.92;;;13.05;;
23782;SDS011;12071;50.850;4.446;2024-01-06T04:40:33;25.27;;;12.68;;
23782;SDS011;12071;50.850;4.446;2024-01-06T04:42:59;24.40;;;13.65;;
23782;SDS011;12071;50.850;4.446;2024-01-06T04:45:25;22.45;;;12.85;;
23782;SDS011;12071;50.850;4.446;2024-01-06T04:47:51;27.77;;;14.18;;
23782;SDS011;12071;50.850;4.446;2024-01-06T04:50:16;20.73;;;13.07;;
23782;SDS011;12071;50.850;4.446;2024-01-06T04:52:42;25.50;;;14.23;;
23782;SDS011;12071;50.850;4.446;2024-01-06T04:55:09;28.90;;;13.60;;
23782;SDS011;12071;50.850;4.446;2024-01-06T04:57:35;25.35;;;13.90;;
23782;SDS011;12071;50.850;4.446;2024-01-06T05:00:02;27.17;;;13.38;;
23782;SDS011;12071;50.850;4.446;2024-01-06T05:02:28;25.85;;;14.13;;
23782;SDS011;12071;50.850;4.446;2024-01-06T05:04:54;29.02;;;14.13;;
23782;SDS011;12071;50.850;4.446;2024-01-06T05:07:20;25.45;;;14.23;;
23782;SDS011;12071;50.850;4.446;2024-01-06T05:09:45;24.10;;;14.00;;
23782;SDS011;12071;50.850;4.446;2024-01-06T05:12:11;23.23;;;13.88;;
23782;SDS011;12071;50.850;4.446;2024-01-06T05:14:37;19.00;;;12.77;;
23782;SDS011;12071;50.850;4.446;2024-01-06T05:17:02;22.98;;;12.07;;
23782;SDS011;12071;50.850;4.446;2024-01-06T05:19:28;26.00;;;12.35;;
23782;SDS011;12071;50.850;4.446;2024-01-06T05:21:54;19.58;;;11.90;;
23782;SDS011;12071;50.850;4.446;2024-01-06T05:24:20;19.95;;;11.30;;
23782;SDS011;12071;50.850;4.446;2024-01-06T05:26:46;20.15;;;11.32;;
23782;SDS011;12071;50.850;4.446;2024-01-06T05:29:11;17.98;;;10.40;;
23782;SDS011;12071;50.850;4.446;2024-01-06T05:31:37;20.50;;;10.43;;
23782;SDS011;12071;50.850;4.446;2024-01-06T05:34:03;17.60;;;11.60;;
23782;SDS011;12071;50.850;4.446;2024-01-06T05:36:29;20.92;;;11.10;;
23782;SDS011;12071;50.850;4.446;2024-01-06T05:38:55;20.10;;;10.38;;
23782;SDS011;12071;50.850;4.446;2024-01-06T05:41:21;17.70;;;10.27;;
23782;SDS011;12071;50.850;4.446;2024-01-06T05:43:46;19.55;;;11.15;;
23782;SDS011;12071;50.850;4.446;2024-01-06T05:46:19;22.20;;;10.63;;
23782;SDS011;12071;50.850;4.446;2024-01-06T05:48:46;21.95;;;11.52;;
23782;SDS011;12071;50.850;4.446;2024-01-06T05:51:11;24.42;;;11.25;;
23782;SDS011;12071;50.850;4.446;2024-01-06T05:53:37;17.83;;;11.07;;
23782;SDS011;12071;50.850;4.446;2024-01-06T05:56:03;22.17;;;11.85;;
23782;SDS011;12071;50.850;4.446;2024-01-06T05:58:29;17.58;;;10.77;;
23782;SDS011;12071;50.850;4.446;2024-01-06T06:00:54;21.20;;;10.30;;
23782;SDS011;12071;50.850;4.446;2024-01-06T06:03:20;13.40;;;9.30;;
23782;SDS011;12071;50.850;4.446;2024-01-06T06:05:45;17.55;;;9.52;;
23782;SDS011;12071;50.850;4.446;2024-01-06T06:08:11;12.65;;;7.55;;
23782;SDS011;12071;50.850;4.446;2024-01-06T06:10:37;16.17;;;7.57;;
23782;SDS011;12071;50.850;4.446;2024-01-06T06:13:07;14.02;;;7.50;;
23782;SDS011;12071;50.850;4.446;2024-01-06T06:15:35;10.27;;;6.63;;
23782;SDS011;12071;50.850;4.446;2024-01-06T06:18:01;14.45;;;7.20;;
23782;SDS011;12071;50.850;4.446;2024-01-06T06:20:27;10.43;;;5.50;;
23782;SDS011;12071;50.850;4.446;2024-01-06T06:22:53;11.50;;;6.00;;
23782;SDS011;12071;50.850;4.446;2024-01-06T06:25:18;9.75;;;6.07;;
23782;SDS011;12071;50.850;4.446;2024-01-06T06:27:44;14.65;;;6.20;;
23782;SDS011;12071;50.850;4.446;2024-01-06T06:30:10;8.98;;;5.63;;
23782;SDS011;12071;50.850;4.446;2024-01-06T06:32:36;10.27;;;6.18;;
23782;SDS011;12071;50.850;4.446;2024-01-06T06:35:01;9.65;;;6.30;;
23782;SDS011;12071;50.850;4.446;2024-01-06T06:37:28;8.93;;;6.05;;
23782;SDS011;12071;50.850;4.446;2024-01-06T06:39:53;11.57;;;5.88;;
23782;SDS011;12071;50.850;4.446;2024-01-06T06:42:19;11.77;;;6.68;;
23782;SDS011;12071;50.850;4.446;2024-01-06T06:44:45;13.55;;;6.85;;
23782;SDS011;12071;50.850;4.446;2024-01-06T06:47:11;14.75;;;7.05;;
23782;SDS011;12071;50.850;4.446;2024-01-06T06:49:37;11.55;;;6.72;;
23782;SDS011;12071;50.850;4.446;2024-01-06T06:52:05;12.23;;;7.97;;
23782;SDS011;12071;50.850;4.446;2024-01-06T06:54:32;12.57;;;6.57;;
23782;SDS011;12071;50.850;4.446;2024-01-06T06:56:58;10.68;;;6.28;;
23782;SDS011;12071;50.850;4.446;2024-01-06T06:59:23;10.02;;;6.88;;
23782;SDS011;12071;50.850;4.446;2024-01-06T07:01:49;9.68;;;6.93;;
23782;SDS011;12071;50.850;4.446;2024-01-06T07:04:15;13.70;;;7.13;;
23782;SDS011;12071;50.850;4.446;2024-01-06T07:06:40;14.48;;;7.38;;
23782;SDS011;12071;50.850;4.446;2024-01-06T07:09:06;14.50;;;8.55;;
23782;SDS011;12071;50.850;4.446;2024-01-06T07:11:32;215.07;;;18.95;;
23782;SDS011;12071;50.850;4.446;2024-01-06T07:13:57;13.50;;;8.50;;
23782;SDS011;12071;50.850;4.446;2024-01-06T07:16:23;12.55;;;8.98;;
23782;SDS011;12071;50.850;4.446;2024-01-06T07:18:49;14.07;;;8.18;;
23782;SDS011;12071;50.850;4.446;2024-01-06T07:21:14;11.30;;;7.55;;
23782;SDS011;12071;50.850;4.446;2024-01-06T07:23:40;11.05;;;7.75;;
23782;SDS011;12071;50.850;4.446;2024-01-06T07:26:07;11.45;;;7.50;;
23782;SDS011;12071;50.850;4.446;2024-01-06T07:28:34;13.07;;;8.35;;
23782;SDS011;12071;50.850;4.446;2024-01-06T07:31:00;10.88;;;8.63;;
23782;SDS011;12071;50.850;4.446;2024-01-06T07:33:26;12.45;;;8.13;;
23782;SDS011;12071;50.850;4.446;2024-01-06T07:35:51;14.98;;;9.05;;
23782;SDS011;12071;50.850;4.446;2024-01-06T07:38:17;20.92;;;9.13;;
23782;SDS011;12071;50.850;4.446;2024-01-06T07:40:44;15.90;;;8.63;;
23782;SDS011;12071;50.850;4.446;2024-01-06T07:43:10;13.40;;;7.70;;
23782;SDS011;12071;50.850;4.446;2024-01-06T07:45:36;15.05;;;9.00;;
23782;SDS011;12071;50.850;4.446;2024-01-06T07:48:01;13.23;;;8.38;;
23782;SDS011;12071;50.850;4.446;2024-01-06T07:50:27;15.32;;;8.85;;
23782;SDS011;12071;50.850;4.446;2024-01-06T07:52:54;15.65;;;9.60;;
23782;SDS011;12071;50.850;4.446;2024-01-06T07:55:19;14.05;;;9.70;;
23782;SDS011;12071;50.850;4.446;2024-01-06T07:57:45;16.50;;;9.55;;
23782;SDS011;12071;50.850;4.446;2024-01-06T08:00:11;16.15;;;9.88;;
23782;SDS011;12071;50.850;4.446;2024-01-06T08:02:41;17.98;;;11.10;;
23782;SDS011;12071;50.850;4.446;2024-01-06T08:05:07;15.20;;;9.48;;
23782;SDS011;12071;50.850;4.446;2024-01-06T08:07:33;16.95;;;9.55;;
23782;SDS011;12071;50.850;4.446;2024-01-06T08:09:59;17.10;;;10.57;;
23782;SDS011;12071;50.850;4.446;2024-01-06T08:12:25;13.27;;;7.72;;
23782;SDS011;12071;50.850;4.446;2024-01-06T08:14:51;13.95;;;8.00;;
23782;SDS011;12071;50.850;4.446;2024-01-06T08:17:17;13.00;;;8.27;;
23782;SDS011;12071;50.850;4.446;2024-01-06T08:19:42;12.90;;;8.57;;
23782;SDS011;12071;50.850;4.446;2024-01-06T08:22:08;15.88;;;7.88;;
23782;SDS011;12071;50.850;4.446;2024-01-06T08:24:34;16.08;;;8.52;;
23782;SDS011;12071;50.850;4.446;2024-01-06T08:26:59;11.32;;;7.32;;
23782;SDS011;12071;50.850;4.446;2024-01-06T08:29:25;12.60;;;8.15;;
23782;SDS011;12071;50.850;4.446;2024-01-06T08:31:51;11.75;;;7.45;;
23782;SDS011;12071;50.850;4.446;2024-01-06T08:34:17;11.70;;;7.80;;
23782;SDS011;12071;50.850;4.446;2024-01-06T08:36:43;13.63;;;7.55;;
23782;SDS011;12071;50.850;4.446;2024-01-06T08:39:10;13.07;;;7.43;;
23782;SDS011;12071;50.850;4.446;2024-01-06T08:41:36;13.25;;;7.65;;
23782;SDS011;12071;50.850;4.446;2024-01-06T08:44:02;14.23;;;7.68;;
23782;SDS011;12071;50.850;4.446;2024-01-06T08:46:27;12.77;;;8.32;;
23782;SDS011;12071;50.850;4.446;2024-01-06T08:48:53;12.25;;;7.63;;
23782;SDS011;12071;50.850;4.446;2024-01-06T08:51:19;11.93;;;7.72;;
23782;SDS011;12071;50.850;4.446;2024-01-06T08:53:45;15.00;;;8.75;;
23782;SDS011;12071;50.850;4.446;2024-01-06T08:56:11;13.68;;;7.88;;
23782;SDS011;12071;50.850;4.446;2024-01-06T08:58:37;18.35;;;9.35;;
23782;SDS011;12071;50.850;4.446;2024-01-06T09:01:03;13.93;;;9.00;;
23782;SDS011;12071;50.850;4.446;2024-01-06T09:03:28;14.13;;;8.40;;
23782;SDS011;12071;50.850;4.446;2024-01-06T09:05:57;54.15;;;30.15;;
23782;SDS011;12071;50.850;4.446;2024-01-06T09:08:23;46.33;;;23.88;;
23782;SDS011;12071;50.850;4.446;2024-01-06T09:10:52;84.95;;;49.70;;
23782;SDS011;12071;50.850;4.446;2024-01-06T09:13:22;13.32;;;9.18;;
23782;SDS011;12071;50.850;4.446;2024-01-06T09:15:48;25.45;;;16.63;;
23782;SDS011;12071;50.850;4.446;2024-01-06T09:18:14;13.70;;;9.50;;
23782;SDS011;12071;50.850;4.446;2024-01-06T09:20:39;15.68;;;8.48;;
23782;SDS011;12071;50.850;4.446;2024-01-06T09:23:05;13.18;;;8.85;;
23782;SDS011;12071;50.850;4.446;2024-01-06T09:25:31;15.10;;;9.45;;
23782;SDS011;12071;50.850;4.446;2024-01-06T09:27:57;14.77;;;8.38;;
23782;SDS011;12071;50.850;4.446;2024-01-06T09:30:23;15.73;;;10.98;;
23782;SDS011;12071;50.850;4.446;2024-01-06T09:32:50;20.02;;;9.35;;
23782;SDS011;12071;50.850;4.446;2024-01-06T09:35:15;14.07;;;9.48;;
23782;SDS011;12071;50.850;4.446;2024-01-06T09:37:41;16.55;;;12.30;;
23782;SDS011;12071;50.850;4.446;2024-01-06T09:40:08;11.10;;;8.18;;
23782;SDS011;12071;50.850;4.446;2024-01-06T09:42:37;12.77;;;8.00;;
23782;SDS011;12071;50.850;4.446;2024-01-06T09:45:03;9.25;;;6.70;;
23782;SDS011;12071;50.850;4.446;2024-01-06T09:47:29;11.95;;;7.30;;
23782;SDS011;12071;50.850;4.446;2024-01-06T09:50:00;9.82;;;5.93;;
23782;SDS011;12071;50.850;4.446;2024-01-06T09:52:29;10.65;;;6.40;;
23782;SDS011;12071;50.850;4.446;2024-01-06T09:54:57;10.73;;;6.57;;
23782;SDS011;12071;50.850;4.446;2024-01-06T09:57:26;9.82;;;6.25;;
23782;SDS011;12071;50.850;4.446;2024-01-06T09:59:52;12.10;;;6.15;;
23782;SDS011;12071;50.850;4.446;2024-01-06T10:02:18;9.30;;;6.35;;
23782;SDS011;12071;50.850;4.446;2024-01-06T10:04:45;10.15;;;6.30;;
23782;SDS011;12071;50.850;4.446;2024-01-06T10:07:11;7.95;;;5.90;;
23782;SDS011;12071;50.850;4.446;2024-01-06T10:09:39;9.75;;;5.82;;
23782;SDS011;12071;50.850;4.446;2024-01-06T10:12:06;9.32;;;6.70;;
23782;SDS011;12071;50.850;4.446;2024-01-06T10:14:32;12.25;;;6.03;;
23782;SDS011;12071;50.850;4.446;2024-01-06T10:16:58;10.90;;;6.88;;
23782;SDS011;12071;50.850;4.446;2024-01-06T10:19:24;11.65;;;7.07;;
23782;SDS011;12071;50.850;4.446;2024-01-06T10:21:50;13.80;;;7.05;;
23782;SDS011;12071;50.850;4.446;2024-01-06T10:24:19;12.45;;;7.25;;
23782;SDS011;12071;50.850;4.446;2024-01-06T10:26:45;13.90;;;7.03;;
23782;SDS011;12071;50.850;4.446;2024-01-06T10:29:12;11.32;;;7.00;;
23782;SDS011;12071;50.850;4.446;2024-01-06T10:31:38;9.15;;;6.68;;
23782;SDS011;12071;50.850;4.446;2024-01-06T10:34:04;10.88;;;7.47;;
23782;SDS011;12071;50.850;4.446;2024-01-06T10:36:31;11.90;;;7.28;;
23782;SDS011;12071;50.850;4.446;2024-01-06T10:38:57;10.35;;;7.28;;
23782;SDS011;12071;50.850;4.446;2024-01-06T10:41:23;9.13;;;6.35;;
23782;SDS011;12071;50.850;4.446;2024-01-06T10:43:49;12.52;;;7.07;;
23782;SDS011;12071;50.850;4.446;2024-01-06T10:46:18;8.43;;;5.70;;
23782;SDS011;12071;50.850;4.446;2024-01-06T10:48:44;10.43;;;5.38;;
23782;SDS011;12071;50.850;4.446;2024-01-06T10:51:12;9.50;;;5.15;;
23782;SDS011;12071;50.850;4.446;2024-01-06T10:53:40;7.95;;;5.53;;
23782;SDS011;12071;50.850;4.446;2024-01-06T10:56:06;10.27;;;5.60;;
23782;SDS011;12071;50.850;4.446;2024-01-06T10:58:47;8.40;;;5.47;;
23782;SDS011;12071;50.850;4.446;2024-01-06T11:01:21;7.85;;;5.38;;
23782;SDS011;12071;50.850;4.446;2024-01-06T11:03:47;7.63;;;6.22;;
23782;SDS011;12071;50.850;4.446;2024-01-06T11:06:14;9.95;;;5.50;;
23782;SDS011;12071;50.850;4.446;2024-01-06T11:09:27;8.52;;;5.82;;
23782;SDS011;12071;50.850;4.446;2024-01-06T11:11:31;7.50;;;5.38;;
23782;SDS011;12071;50.850;4.446;2024-01-06T11:14:16;8.40;;;5.53;;
23782;SDS011;12071;50.850;4.446;2024-01-06T11:16:42;8.80;;;5.43;;
23782;SDS011;12071;50.850;4.446;2024-01-06T11:22:18;8.43;;;5.47;;
23782;SDS011;12071;50.850;4.446;2024-01-06T11:24:49;9.15;;;5.38;;
23782;SDS011;12071;50.850;4.446;2024-01-06T11:27:22;7.18;;;5.30;;
23782;SDS011;12071;50.850;4.446;2024-01-06T11:29:55;6.18;;;4.88;;
23782;SDS011;12071;50.850;4.446;2024-01-06T11:35:15;10.13;;;4.95;;
23782;SDS011;12071;50.850;4.446;2024-01-06T11:42:47;6.55;;;5.32;;
23782;SDS011;12071;50.850;4.446;2024-01-06T11:45:14;8.02;;;5.90;;
23782;SDS011;12071;50.850;4.446;2024-01-06T11:47:46;7.05;;;5.82;;
23782;SDS011;12071;50.850;4.446;2024-01-06T11:50:13;10.40;;;6.18;;
23782;SDS011;12071;50.850;4.446;2024-01-06T11:52:39;9.02;;;6.25;;
23782;SDS011;12071;50.850;4.446;2024-01-06T11:55:05;7.43;;;5.95;;
23782;SDS011;12071;50.850;4.446;2024-01-06T11:57:34;10.15;;;6.53;;
23782;SDS011;12071;50.850;4.446;2024-01-06T12:00:00;8.93;;;7.32;;
23782;SDS011;12071;50.850;4.446;2024-01-06T12:02:26;11.02;;;7.13;;
23782;SDS011;12071;50.850;4.446;2024-01-06T12:04:52;9.77;;;7.18;;
23782;SDS011;12071;50.850;4.446;2024-01-06T12:07:19;10.00;;;7.82;;
23782;SDS011;12071;50.850;4.446;2024-01-06T12:09:47;11.27;;;7.57;;
23782;SDS011;12071;50.850;4.446;2024-01-06T12:12:16;8.73;;;6.10;;
23782;SDS011;12071;50.850;4.446;2024-01-06T12:14:43;12.95;;;7.30;;
23782;SDS011;12071;50.850;4.446;2024-01-06T12:17:10;9.95;;;6.65;;
23782;SDS011;12071;50.850;4.446;2024-01-06T12:19:38;8.50;;;6.40;;
23782;SDS011;12071;50.850;4.446;2024-01-06T12:22:06;9.95;;;6.68;;
23782;SDS011;12071;50.850;4.446;2024-01-06T12:24:35;8.05;;;6.88;;
23782;SDS011;12071;50.850;4.446;2024-01-06T12:27:01;8.85;;;6.38;;
23782;SDS011;12071;50.850;4.446;2024-01-06T12:29:27;8.80;;;6.22;;
23782;SDS011;12071;50.850;4.446;2024-01-06T12:31:54;10.95;;;6.38;;
23782;SDS011;12071;50.850;4.446;2024-01-06T12:34:21;9.02;;;6.70;;
23782;SDS011;12071;50.850;4.446;2024-01-06T12:36:47;8.88;;;6.82;;
23782;SDS011;12071;50.850;4.446;2024-01-06T12:39:13;8.30;;;6.35;;
23782;SDS011;12071;50.850;4.446;2024-01-06T12:41:42;8.15;;;6.22;;
23782;SDS011;12071;50.850;4.446;2024-01-06T12:44:08;9.55;;;6.68;;
23782;SDS011;12071;50.850;4.446;2024-01-06T12:46:35;10.63;;;6.63;;
23782;SDS011;12071;50.850;4.446;2024-01-06T12:49:01;10.02;;;6.55;;
23782;SDS011;12071;50.850;4.446;2024-01-06T12:51:27;9.70;;;6.47;;
23782;SDS011;12071;50.850;4.446;2024-01-06T12:53:53;12.95;;;6.95;;
23782;SDS011;12071;50.850;4.446;2024-01-06T12:56:19;12.35;;;6.53;;
23782;SDS011;12071;50.850;4.446;2024-01-06T12:58:45;7.85;;;6.57;;
23782;SDS011;12071;50.850;4.446;2024-01-06T13:01:11;9.70;;;6.50;;
23782;SDS011;12071;50.850;4.446;2024-01-06T13:03:36;9.15;;;6.18;;
23782;SDS011;12071;50.850;4.446;2024-01-06T13:06:02;9.25;;;6.45;;
23782;SDS011;12071;50.850;4.446;2024-01-06T13:08:28;8.23;;;6.28;;
23782;SDS011;12071;50.850;4.446;2024-01-06T13:10:55;9.75;;;6.22;;
23782;SDS011;12071;50.850;4.446;2024-01-06T13:13:21;9.98;;;6.32;;
23782;SDS011;12071;50.850;4.446;2024-01-06T13:15:47;10.43;;;6.82;;
23782;SDS011;12071;50.850;4.446;2024-01-06T13:18:13;10.82;;;7.30;;
23782;SDS011;12071;50.850;4.446;2024-01-06T13:20:39;10.70;;;6.72;;
23782;SDS011;12071;50.850;4.446;2024-01-06T13:23:06;8.90;;;6.57;;
23782;SDS011;12071;50.850;4.446;2024-01-06T13:25:33;11.20;;;6.18;;
23782;SDS011;12071;50.850;4.446;2024-01-06T13:28:00;8.65;;;6.32;;
23782;SDS011;12071;50.850;4.446;2024-01-06T13:30:25;6.55;;;5.65;;
23782;SDS011;12071;50.850;4.446;2024-01-06T13:32:54;8.60;;;6.32;;
23782;SDS011;12071;50.850;4.446;2024-01-06T13:35:20;8.90;;;6.53;;
23782;SDS011;12071;50.850;4.446;2024-01-06T13:37:50;10.93;;;6.82;;
23782;SDS011;12071;50.850;4.446;2024-01-06T13:40:16;9.15;;;6.35;;
23782;SDS011;12071;50.850;4.446;2024-01-06T13:42:49;14.77;;;6.90;;
23782;SDS011;12071;50.850;4.446;2024-01-06T13:45:18;9.32;;;6.80;;
23782;SDS011;12071;50.850;4.446;2024-01-06T13:47:44;9.63;;;6.55;;
23782;SDS011;12071;50.850;4.446;2024-01-06T13:50:11;13.18;;;6.97;;
23782;SDS011;12071;50.850;4.446;2024-01-06T13:52:37;11.25;;;6.75;;
23782;SDS011;12071;50.850;4.446;2024-01-06T13:55:04;10.63;;;6.70;;
23782;SDS011;12071;50.850;4.446;2024-01-06T13:57:30;8.73;;;6.45;;
23782;SDS011;12071;50.850;4.446;2024-01-06T13:59:56;8.68;;;6.47;;
23782;SDS011;12071;50.850;4.446;2024-01-06T14:02:22;7.40;;;6.55;;
23782;SDS011;12071;50.850;4.446;2024-01-06T14:04:49;7.43;;;5.68;;
23782;SDS011;12071;50.850;4.446;2024-01-06T14:07:15;10.52;;;6.28;;
23782;SDS011;12071;50.850;4.446;2024-01-06T14:09:44;7.82;;;5.63;;
23782;SDS011;12071;50.850;4.446;2024-01-06T14:12:10;8.45;;;5.80;;
23782;SDS011;12071;50.850;4.446;2024-01-06T14:14:36;6.85;;;5.10;;
23782;SDS011;12071;50.850;4.446;2024-01-06T14:17:02;7.50;;;5.03;;
23782;SDS011;12071;50.850;4.446;2024-01-06T14:19:28;6.20;;;4.57;;
23782;SDS011;12071;50.850;4.446;2024-01-06T14:21:53;8.57;;;5.68;;
23782;SDS011;12071;50.850;4.446;2024-01-06T14:24:19;6.90;;;5.30;;
23782;SDS011;12071;50.850;4.446;2024-01-06T14:26:50;8.75;;;5.18;;
23782;SDS011;12071;50.850;4.446;2024-01-06T14:29:15;7.72;;;5.43;;
23782;SDS011;12071;50.850;4.446;2024-01-06T14:31:42;9.02;;;5.43;;
23782;SDS011;12071;50.850;4.446;2024-01-06T14:34:08;8.98;;;5.75;;
23782;SDS011;12071;50.850;4.446;2024-01-06T14:36:34;9.35;;;5.15;;
23782;SDS011;12071;50.850;4.446;2024-01-06T14:39:00;10.07;;;5.05;;
23782;SDS011;12071;50.850;4.446;2024-01-06T14:41:26;8.00;;;5.50;;
23782;SDS011;12071;50.850;4.446;2024-01-06T14:43:52;6.55;;;5.45;;